Time;durP1;ratioP1;P1;durP2;ratioP2;P2;SDS_P1;SDS_P2;PMS_P1;PMS_P2;Temp;Humidity;BMP_temperature;BMP_pressure;BME280_temperature;BME280_humidity;BME280_pressure;Samples;Min_cycle;Max_cycle;Signal;HPM_P1;HPM_P2
2022/12/06 01:02:28;;;;;;;10.20;8.43;;;2.90;99.90;;;;;;5097576;27;21398;-90
2022/12/06 01:05:00;;;;;;;9.83;7.37;;;3.00;99.90;;;;;;5101551;28;20213;-88
2022/12/06 01:07:31;;;;;;;7.90;7.00;;;3.10;99.90;;;;;;5091569;28;20215;-88
2022/12/06 01:10:10;;;;;;;9.33;7.10;;;3.10;99.90;;;;;;5077533;28;20227;-86
2022/12/06 01:12:44;;;;;;;11.80;7.27;;;3.00;99.90;;;;;;5095495;28;20218;-87
2022/12/06 01:15:15;;;;;;;11.00;6.67;;;3.00;99.90;;;;;;5074836;28;20211;-88
2022/12/06 01:17:49;;;;;;;9.40;7.30;;;3.00;99.90;;;;;;5073316;28;20195;-87
2022/12/06 01:20:22;;;;;;;9.40;6.60;;;3.10;99.90;;;;;;5094570;28;20296;-86
2022/12/06 01:22:53;;;;;;;9.20;7.13;;;3.00;99.90;;;;;;5080808;28;20717;-87
2022/12/06 01:25:24;;;;;;;11.33;7.17;;;3.00;99.90;;;;;;5085966;28;20310;-87
2022/12/06 01:27:56;;;;;;;10.40;6.90;;;3.10;99.90;;;;;;5079740;28;20211;-88
2022/12/06 01:30:30;;;;;;;11.63;7.03;;;3.10;99.90;;;;;;5082352;28;20312;-87
2022/12/06 01:33:04;;;;;;;9.90;7.07;;;3.10;99.90;;;;;;5080025;28;20268;-87
2022/12/06 01:35:40;;;;;;;8.67;6.73;;;3.10;99.90;;;;;;5079995;28;20287;-88
2022/12/06 01:38:12;;;;;;;9.97;7.43;;;3.10;99.90;;;;;;5079724;28;20238;-88
2022/12/06 01:40:45;;;;;;;9.53;7.43;;;3.00;99.90;;;;;;5079874;28;20255;-88
2022/12/06 01:43:35;;;;;;;11.83;7.23;;;3.00;99.90;;;;;;5080352;28;20203;-88
2022/12/06 01:46:17;;;;;;;11.57;8.30;;;3.00;99.90;;;;;;5099294;28;20199;-87
2022/12/06 01:48:54;;;;;;;11.50;7.80;;;3.10;99.90;;;;;;5076803;28;20200;-89
2022/12/06 01:51:26;;;;;;;14.20;8.20;;;3.10;99.90;;;;;;5089682;28;20222;-87
2022/12/06 01:53:59;;;;;;;15.50;9.00;;;3.10;99.90;;;;;;5097568;28;20204;-87
2022/12/06 01:56:31;;;;;;;9.43;7.80;;;3.10;99.90;;;;;;5081902;28;20223;-87
2022/12/06 01:59:05;;;;;;;13.73;9.60;;;3.10;99.90;;;;;;5095181;28;20207;-89
2022/12/06 02:01:37;;;;;;;12.20;9.37;;;3.10;99.90;;;;;;5080970;28;20215;-87
2022/12/06 02:04:10;;;;;;;13.00;9.13;;;3.10;99.90;;;;;;5076555;28;20200;-87
2022/12/06 02:06:42;;;;;;;14.37;10.10;;;3.10;99.90;;;;;;5095768;28;20196;-88
2022/12/06 02:09:14;;;;;;;13.23;9.37;;;3.10;99.90;;;;;;5095175;28;20206;-89
2022/12/06 02:11:46;;;;;;;15.83;9.27;;;3.10;99.90;;;;;;5089939;28;20246;-88
2022/12/06 02:14:21;;;;;;;12.03;8.43;;;3.10;99.90;;;;;;5083617;28;20207;-88
2022/12/06 02:17:15;;;;;;;12.77;9.40;;;3.10;99.90;;;;;;5088010;28;20615;-88
2022/12/06 02:20:14;;;;;;;12.40;8.80;;;3.10;99.90;;;;;;5040199;28;20240;-88
2022/12/06 02:23:22;;;;;;;13.60;8.43;;;3.10;99.90;;;;;;5056626;28;20201;-88
2022/12/06 02:26:17;;;;;;;12.80;9.37;;;3.10;99.90;;;;;;5081058;28;20188;-88
2022/12/06 02:29:17;;;;;;;11.70;8.40;;;3.10;99.90;;;;;;5074380;28;20268;-88
2022/12/06 02:31:57;;;;;;;11.70;8.23;;;3.20;99.90;;;;;;5065831;28;20300;-86
2022/12/06 02:34:36;;;;;;;10.63;7.87;;;3.10;99.90;;;;;;5067425;28;20242;-88
2022/12/06 02:37:13;;;;;;;12.50;8.03;;;3.10;99.90;;;;;;5049429;28;20219;-88
2022/12/06 02:39:51;;;;;;;12.20;8.07;;;3.00;99.90;;;;;;5059603;28;20215;-86
2022/12/06 02:42:27;;;;;;;10.47;7.37;;;3.00;99.90;;;;;;5052087;28;20260;-89
2022/12/06 02:45:00;;;;;;;9.70;6.57;;;3.00;99.90;;;;;;5062910;28;20200;-88
2022/12/06 02:47:38;;;;;;;10.73;6.73;;;3.00;99.90;;;;;;5067042;28;20208;-90
2022/12/06 02:50:18;;;;;;;10.97;7.40;;;3.00;99.90;;;;;;5073819;28;20217;-88
2022/12/06 02:52:57;;;;;;;11.97;7.37;;;3.00;99.90;;;;;;5061912;28;20238;-90
2022/12/06 02:55:40;;;;;;;7.87;6.27;;;3.00;99.90;;;;;;5063299;28;20962;-86
2022/12/06 02:58:17;;;;;;;9.13;6.73;;;3.00;99.90;;;;;;5064175;28;20303;-85
2022/12/06 03:00:58;;;;;;;10.23;6.60;;;3.00;99.90;;;;;;5065969;28;20242;-86
2022/12/06 03:03:56;;;;;;;10.17;5.80;;;3.00;99.90;;;;;;5067113;28;20204;-87
2022/12/06 03:06:52;;;;;;;8.07;5.23;;;2.90;99.90;;;;;;5050949;28;20250;-87
2022/12/06 03:09:43;;;;;;;7.03;5.30;;;2.90;99.90;;;;;;5070014;28;20247;-87
2022/12/06 03:12:24;;;;;;;8.30;5.33;;;2.90;99.90;;;;;;5065819;28;20296;-88
2022/12/06 03:15:07;;;;;;;6.40;4.97;;;2.90;99.90;;;;;;5057327;28;20208;-87
2022/12/06 03:17:43;;;;;;;8.73;5.20;;;3.00;99.90;;;;;;5049944;28;20207;-87
2022/12/06 03:20:25;;;;;;;7.40;4.80;;;3.00;99.90;;;;;;5059999;28;20238;-88
2022/12/06 03:23:07;;;;;;;6.60;4.70;;;2.90;99.90;;;;;;5055349;28;20204;-87
2022/12/06 03:25:42;;;;;;;6.60;4.37;;;2.90;99.90;;;;;;5051029;28;20240;-87
2022/12/06 03:28:23;;;;;;;6.30;4.63;;;2.90;99.90;;;;;;5064267;28;20226;-87
2022/12/06 03:31:04;;;;;;;6.13;4.50;;;2.90;99.90;;;;;;5059679;28;20201;-87
2022/12/06 03:33:44;;;;;;;8.13;5.10;;;2.80;99.90;;;;;;5070705;28;20208;-88
2022/12/06 03:36:23;;;;;;;7.00;5.17;;;2.70;99.90;;;;;;5063524;28;20226;-87
2022/12/06 03:39:01;;;;;;;8.50;5.80;;;2.70;99.90;;;;;;5085404;28;20212;-87
2022/12/06 03:41:39;;;;;;;8.63;6.10;;;2.70;99.90;;;;;;5066232;28;20240;-87
2022/12/06 03:44:12;;;;;;;6.63;5.33;;;2.60;99.90;;;;;;5064790;28;20208;-88
2022/12/06 03:46:57;;;;;;;6.53;4.80;;;2.60;99.90;;;;;;5063325;28;20220;-86
2022/12/06 03:49:34;;;;;;;7.47;5.07;;;2.50;99.90;;;;;;5056252;28;20192;-88
2022/12/06 03:52:11;;;;;;;6.40;4.50;;;2.60;99.90;;;;;;5057814;28;20260;-87
2022/12/06 03:54:44;;;;;;;5.57;4.13;;;2.50;99.90;;;;;;5059880;28;20294;-87
2022/12/06 03:57:16;;;;;;;5.70;4.33;;;2.50;99.90;;;;;;5059150;28;20246;-87
2022/12/06 03:59:56;;;;;;;9.70;4.67;;;2.40;99.90;;;;;;5055617;28;20231;-88
2022/12/06 04:02:33;;;;;;;6.17;4.43;;;2.40;99.90;;;;;;5052798;28;20243;-87
2022/12/06 04:05:04;;;;;;;6.33;4.57;;;2.40;99.90;;;;;;5064525;28;20308;-87
2022/12/06 04:07:39;;;;;;;7.60;4.70;;;2.40;99.90;;;;;;5053005;28;20204;-88
2022/12/06 04:10:12;;;;;;;6.27;4.80;;;2.40;99.90;;;;;;5061601;28;20207;-89
2022/12/06 04:13:10;;;;;;;7.97;4.80;;;2.50;99.90;;;;;;5065157;28;20230;-87
2022/12/06 04:15:50;;;;;;;7.50;4.50;;;2.50;99.90;;;;;;5063550;28;20220;-89
2022/12/06 04:18:22;;;;;;;6.37;4.50;;;2.40;99.90;;;;;;5065374;28;20211;-87
2022/12/06 04:23:53;;;;;;;5.97;4.97;;;2.40;99.90;;;;;;5042687;28;20239;-88
2022/12/06 04:26:25;;;;;;;5.87;4.63;;;2.30;99.90;;;;;;5056164;28;20243;-88
2022/12/06 04:40:20;;;;;;;6.53;4.97;;;2.30;99.90;;;;;;5070866;28;20211;-88
2022/12/06 04:45:42;;;;;;;8.77;4.60;;;2.30;99.90;;;;;;5055597;28;20212;-88
2022/12/06 04:48:13;;;;;;;7.27;5.40;;;2.30;99.90;;;;;;5058764;28;20238;-87
2022/12/06 04:50:50;;;;;;;6.60;4.67;;;2.20;99.90;;;;;;5067279;28;20234;-88
2022/12/06 04:53:22;;;;;;;7.40;4.50;;;2.30;99.90;;;;;;5068212;28;20237;-86
2022/12/06 04:56:00;;;;;;;6.37;5.10;;;2.20;99.90;;;;;;5056698;28;20713;-87
2022/12/06 04:58:33;;;;;;;6.60;5.10;;;2.20;99.90;;;;;;5047546;28;20214;-87
2022/12/06 05:01:04;;;;;;;7.90;5.30;;;2.20;99.90;;;;;;5052581;28;20255;-89
2022/12/06 05:03:36;;;;;;;10.77;5.83;;;2.30;99.90;;;;;;5050639;28;20238;-88
2022/12/06 05:06:13;;;;;;;8.23;5.47;;;2.30;99.90;;;;;;5051991;28;20826;-88
2022/12/06 05:08:45;;;;;;;6.67;5.03;;;2.30;99.90;;;;;;5066081;28;20207;-88
2022/12/06 05:11:20;;;;;;;7.73;5.77;;;2.20;99.90;;;;;;5060544;28;20200;-87
2022/12/06 05:13:51;;;;;;;6.47;5.57;;;2.20;99.90;;;;;;5043914;28;20642;-88
2022/12/06 05:16:25;;;;;;;6.53;5.50;;;2.20;99.90;;;;;;5053741;28;20295;-88
2022/12/06 05:18:56;;;;;;;6.57;4.73;;;2.20;99.90;;;;;;5048019;28;20216;-87
2022/12/06 05:21:32;;;;;;;6.90;4.67;;;2.20;99.90;;;;;;5040970;28;20283;-88
2022/12/06 05:24:03;;;;;;;10.00;5.03;;;2.30;99.90;;;;;;5053317;28;20232;-89
2022/12/06 05:26:46;;;;;;;6.43;4.17;;;2.30;99.90;;;;;;5055225;28;20211;-87
2022/12/06 05:29:20;;;;;;;5.57;4.17;;;2.30;99.90;;;;;;5044929;28;20283;-88
2022/12/06 05:31:52;;;;;;;6.17;5.20;;;2.30;99.90;;;;;;5076233;28;20239;-87
2022/12/06 05:34:27;;;;;;;5.57;4.63;;;2.40;99.90;;;;;;5045040;28;20636;-89
2022/12/06 05:37:00;;;;;;;11.43;4.10;;;2.40;99.90;;;;;;5037342;28;20212;-88
2022/12/06 05:39:31;;;;;;;4.40;4.00;;;2.40;99.90;;;;;;5047064;28;20304;-88
2022/12/06 05:42:10;;;;;;;4.50;4.00;;;2.40;99.90;;;;;;5058693;28;20203;-88
2022/12/06 05:44:51;;;;;;;5.00;3.93;;;2.40;99.90;;;;;;5072854;28;20234;-87
2022/12/06 05:47:23;;;;;;;3.97;3.30;;;2.40;99.90;;;;;;5061036;28;20296;-88
2022/12/06 05:49:56;;;;;;;5.47;3.30;;;2.40;99.90;;;;;;5078406;28;20224;-87
2022/12/06 05:52:30;;;;;;;7.07;4.10;;;2.40;99.90;;;;;;5061570;28;20238;-88
2022/12/06 05:55:01;;;;;;;6.40;3.83;;;2.30;99.90;;;;;;5060722;28;20258;-86
2022/12/06 05:57:34;;;;;;;6.10;4.40;;;2.30;99.90;;;;;;5059111;28;20559;-88
2022/12/06 06:00:07;;;;;;;6.17;4.27;;;2.30;99.90;;;;;;5043967;28;20712;-87
2022/12/06 06:02:39;;;;;;;6.30;4.80;;;2.30;99.90;;;;;;5041737;28;20285;-89
2022/12/06 06:05:13;;;;;;;5.87;4.53;;;2.30;99.90;;;;;;5064013;28;20200;-89
2022/12/06 06:07:47;;;;;;;6.17;4.33;;;2.20;99.90;;;;;;5061823;28;20759;-88
2022/12/06 06:10:19;;;;;;;10.43;4.30;;;2.20;99.90;;;;;;5061842;28;20216;-88
2022/12/06 06:12:55;;;;;;;7.13;4.20;;;2.20;99.90;;;;;;5047231;28;20681;-88
2022/12/06 06:15:27;;;;;;;6.17;4.60;;;2.20;99.90;;;;;;5063675;28;20200;-88
2022/12/06 06:18:01;;;;;;;6.73;4.00;;;2.20;99.90;;;;;;5063976;28;20228;-88
2022/12/06 06:20:32;;;;;;;5.80;4.27;;;2.20;99.90;;;;;;5060165;28;20276;-89
2022/12/06 06:23:04;;;;;;;5.77;3.77;;;2.30;99.90;;;;;;5049390;28;20244;-88
2022/12/06 06:25:37;;;;;;;5.80;4.33;;;2.20;99.90;;;;;;5046025;28;20457;-88
2022/12/06 06:28:13;;;;;;;7.37;5.27;;;2.30;99.90;;;;;;5067613;28;20218;-89
2022/12/06 06:30:45;;;;;;;6.97;5.07;;;2.20;99.90;;;;;;5057566;28;20291;-89
2022/12/06 06:33:17;;;;;;;11.50;4.70;;;2.20;99.90;;;;;;5056153;28;20228;-88
2022/12/06 06:35:50;;;;;;;6.93;4.63;;;2.20;99.90;;;;;;5049791;28;20224;-89
2022/12/06 06:38:22;;;;;;;7.73;5.73;;;2.20;99.90;;;;;;5043130;28;20619;-94
2022/12/06 06:40:54;;;;;;;5.47;4.43;;;2.20;99.90;;;;;;5058546;28;20211;-94
2022/12/06 06:43:29;;;;;;;5.50;4.20;;;2.20;99.90;;;;;;5057771;28;20475;-89
2022/12/06 06:46:05;;;;;;;5.37;4.10;;;2.20;99.90;;;;;;5060207;28;20203;-88
2022/12/06 06:48:38;;;;;;;5.30;4.07;;;2.20;99.90;;;;;;5057788;28;20317;-88
2022/12/06 06:51:12;;;;;;;6.60;4.93;;;2.20;99.90;;;;;;5057560;28;20222;-88
2022/12/06 06:53:43;;;;;;;8.03;4.87;;;2.20;99.90;;;;;;5057424;28;20626;-88
2022/12/06 06:56:15;;;;;;;7.30;5.20;;;2.20;99.90;;;;;;5057763;28;20206;-89
2022/12/06 06:58:48;;;;;;;6.97;5.20;;;2.20;99.90;;;;;;5054979;28;20275;-88
2022/12/06 07:01:22;;;;;;;8.03;5.80;;;2.20;99.90;;;;;;5044980;28;20212;-88
2022/12/06 07:03:54;;;;;;;9.13;6.10;;;2.20;99.90;;;;;;5067411;28;20228;-88
2022/12/06 07:06:25;;;;;;;9.60;6.40;;;2.20;99.90;;;;;;5070154;28;20223;-94
2022/12/06 07:08:57;;;;;;;9.70;6.17;;;2.10;99.90;;;;;;5068377;28;20211;-88
2022/12/06 07:11:28;;;;;;;10.47;6.97;;;2.10;99.90;;;;;;5084730;28;20211;-88
2022/12/06 07:14:02;;;;;;;11.27;7.30;;;2.10;99.90;;;;;;5050557;28;20236;-89
2022/12/06 07:16:34;;;;;;;11.03;6.80;;;2.10;99.90;;;;;;5039493;28;20232;-89
2022/12/06 07:19:05;;;;;;;10.60;7.77;;;2.10;99.90;;;;;;5060483;28;20208;-88
2022/12/06 07:21:38;;;;;;;9.80;6.57;;;2.10;99.90;;;;;;5059500;28;20204;-88
2022/12/06 07:24:09;;;;;;;10.37;6.57;;;2.10;99.90;;;;;;5065414;28;20239;-89
2022/12/06 07:26:41;;;;;;;10.93;7.30;;;2.10;99.90;;;;;;5059163;28;20200;-88
2022/12/06 07:29:15;;;;;;;10.83;7.00;;;2.10;99.90;;;;;;5062226;28;20196;-88
2022/12/06 07:31:47;;;;;;;11.73;7.47;;;2.10;99.90;;;;;;5076794;28;20274;-89
2022/12/06 07:34:22;;;;;;;11.90;6.23;;;2.10;99.90;;;;;;5071656;28;20219;-89
2022/12/06 07:36:54;;;;;;;9.67;6.57;;;2.00;99.90;;;;;;5079231;28;20199;-89
2022/12/06 07:39:26;;;;;;;9.30;6.73;;;2.00;99.90;;;;;;5064982;28;20287;-88
2022/12/06 07:45:06;;;;;;;8.37;6.10;;;2.00;99.90;;;;;;5042534;28;20596;-88
2022/12/06 07:47:38;;;;;;;11.63;6.77;;;2.00;99.90;;;;;;5062384;28;20204;-88
2022/12/06 07:50:13;;;;;;;12.30;7.90;;;2.00;99.90;;;;;;5078773;28;20243;-88
2022/12/06 07:52:49;;;;;;;13.30;8.07;;;2.00;99.90;;;;;;5076657;28;20242;-88
2022/12/06 07:55:21;;;;;;;12.30;8.70;;;2.00;99.90;;;;;;5078072;28;20231;-89
2022/12/06 07:57:53;;;;;;;14.87;9.17;;;2.10;99.90;;;;;;5074056;28;20215;-87
2022/12/06 08:00:28;;;;;;;12.60;8.57;;;2.10;99.90;;;;;;5087606;28;20222;-88
2022/12/06 08:03:00;;;;;;;11.20;7.87;;;2.10;99.90;;;;;;5069762;28;20215;-89
2022/12/06 08:05:32;;;;;;;12.03;7.37;;;2.10;99.90;;;;;;5069467;28;20669;-89
2022/12/06 08:08:05;;;;;;;10.13;7.40;;;2.10;99.90;;;;;;5058415;28;20205;-88
2022/12/06 08:10:38;;;;;;;8.50;6.50;;;2.20;99.90;;;;;;5058663;28;20208;-88
2022/12/06 08:13:09;;;;;;;11.33;7.70;;;2.20;99.90;;;;;;5052981;28;20312;-88
2022/12/06 08:15:44;;;;;;;8.80;6.63;;;2.20;99.90;;;;;;5052177;28;20296;-88
2022/12/06 08:18:16;;;;;;;7.43;5.50;;;2.20;99.90;;;;;;5060804;28;20231;-88
2022/12/06 08:20:51;;;;;;;9.47;5.57;;;2.20;99.90;;;;;;5054172;28;20326;-88
2022/12/06 08:23:24;;;;;;;8.57;6.20;;;2.20;99.90;;;;;;5052676;28;20322;-89
2022/12/06 08:26:07;;;;;;;8.77;5.50;;;2.20;99.90;;;;;;5058293;28;20224;-88
2022/12/06 08:28:42;;;;;;;7.10;5.37;;;2.10;99.90;;;;;;5051154;28;20222;-88
2022/12/06 08:31:18;;;;;;;7.13;5.40;;;2.10;99.90;;;;;;5038174;28;20251;-89
2022/12/06 08:33:50;;;;;;;5.80;4.77;;;2.20;99.90;;;;;;5052864;28;20296;-89
2022/12/06 08:36:23;;;;;;;4.63;3.90;;;2.10;99.90;;;;;;5047624;28;20280;-88
2022/12/06 08:38:55;;;;;;;5.63;4.47;;;2.10;99.90;;;;;;5056281;28;20204;-88
2022/12/06 08:44:20;;;;;;;11.20;7.97;;;2.10;99.90;;;;;;5027244;28;20216;-89
2022/12/06 08:46:55;;;;;;;7.40;6.30;;;2.10;99.90;;;;;;5056285;28;20208;-88
